sensor_id;sensor_type;location;lat;lon;timestamp;temperature;humidity
13697;DHT22;6920;50.080;8.226;2024-02-21T00:02:11;8.50;99.90
13697;DHT22;6920;50.080;8.226;2024-02-21T00:12:06;8.50;99.90
13697;DHT22;6920;50.080;8.226;2024-02-21T00:14:34;8.50;99.90
13697;DHT22;6920;50.080;8.226;2024-02-21T00:19:29;8.40;99.90
13697;DHT22;6920;50.080;8.226;2024-02-21T00:21:56;8.40;99.90
13697;DHT22;6920;50.080;8.226;2024-02-21T00:24:24;8.40;99.90
13697;DHT22;6920;50.080;8.226;2024-02-21T00:26:53;8.40;99.90
13697;DHT22;6920;50.080;8.226;2024-02-21T00:29:20;8.40;99.90
13697;DHT22;6920;50.080;8.226;2024-02-21T00:31:49;8.40;99.90
13697;DHT22;6920;50.080;8.226;2024-02-21T00:39:11;8.30;99.90
13697;DHT22;6920;50.080;8.226;2024-02-21T00:44:07;8.40;99.90
13697;DHT22;6920;50.080;8.226;2024-02-21T00:46:35;8.40;99.90
13697;DHT22;6920;50.080;8.226;2024-02-21T00:49:04;8.40;99.90
13697;DHT22;6920;50.080;8.226;2024-02-21T00:51:32;8.40;99.90
13697;DHT22;6920;50.080;8.226;2024-02-21T00:53:59;8.40;99.90
13697;DHT22;6920;50.080;8.226;2024-02-21T00:56:27;8.30;99.90
13697;DHT22;6920;50.080;8.226;2024-02-21T00:58:56;8.40;99.90
13697;DHT22;6920;50.080;8.226;2024-02-21T01:01:24;8.40;99.90
13697;DHT22;6920;50.080;8.226;2024-02-21T01:03:52;8.30;99.90
13697;DHT22;6920;50.080;8.226;2024-02-21T01:06:21;8.50;99.90
13697;DHT22;6920;50.080;8.226;2024-02-21T01:13:44;8.50;99.90
13697;DHT22;6920;50.080;8.226;2024-02-21T01:16:13;8.50;99.90
13697;DHT22;6920;50.080;8.226;2024-02-21T01:18:40;8.50;99.90
13697;DHT22;6920;50.080;8.226;2024-02-21T01:21:07;8.70;99.90
13697;DHT22;6920;50.080;8.226;2024-02-21T01:23:35;8.70;99.90
13697;DHT22;6920;50.080;8.226;2024-02-21T01:26:03;8.60;99.90
13697;DHT22;6920;50.080;8.226;2024-02-21T01:28:34;8.70;99.90
13697;DHT22;6920;50.080;8.226;2024-02-21T01:31:01;8.60;99.90
13697;DHT22;6920;50.080;8.226;2024-02-21T01:36:00;8.60;99.90
13697;DHT22;6920;50.080;8.226;2024-02-21T01:38:28;8.60;99.90
13697;DHT22;6920;50.080;8.226;2024-02-21T01:43:23;8.50;99.90
13697;DHT22;6920;50.080;8.226;2024-02-21T01:45:52;8.40;99.90
13697;DHT22;6920;50.080;8.226;2024-02-21T01:48:20;8.50;99.90
13697;DHT22;6920;50.080;8.226;2024-02-21T01:50:51;8.40;99.90
13697;DHT22;6920;50.080;8.226;2024-02-21T01:53:24;8.50;99.90
13697;DHT22;6920;50.080;8.226;2024-02-21T01:55:52;8.40;99.90
13697;DHT22;6920;50.080;8.226;2024-02-21T01:58:21;8.30;99.90
13697;DHT22;6920;50.080;8.226;2024-02-21T02:03:16;8.40;99.90
13697;DHT22;6920;50.080;8.226;2024-02-21T02:08:13;8.40;99.90
13697;DHT22;6920;50.080;8.226;2024-02-21T02:10:41;8.30;99.90
13697;DHT22;6920;50.080;8.226;2024-02-21T02:13:08;8.30;99.90
13697;DHT22;6920;50.080;8.226;2024-02-21T02:15:40;8.40;99.90
13697;DHT22;6920;50.080;8.226;2024-02-21T02:20:34;8.30;99.90
13697;DHT22;6920;50.080;8.226;2024-02-21T02:23:06;8.30;99.90
13697;DHT22;6920;50.080;8.226;2024-02-21T02:25:35;8.30;99.90
13697;DHT22;6920;50.080;8.226;2024-02-21T02:28:03;8.20;99.90
13697;DHT22;6920;50.080;8.226;2024-02-21T02:30:32;8.30;99.90
13697;DHT22;6920;50.080;8.226;2024-02-21T02:35:27;8.30;99.90
13697;DHT22;6920;50.080;8.226;2024-02-21T02:37:54;8.30;99.90
13697;DHT22;6920;50.080;8.226;2024-02-21T02:40:21;8.20;99.90
13697;DHT22;6920;50.080;8.226;2024-02-21T02:42:50;8.20;99.90
13697;DHT22;6920;50.080;8.226;2024-02-21T02:45:21;9.50;99.90
13697;DHT22;6920;50.080;8.226;2024-02-21T02:55:15;8.00;99.90
13697;DHT22;6920;50.080;8.226;2024-02-21T03:00:13;7.90;99.90
13697;DHT22;6920;50.080;8.226;2024-02-21T03:02:42;8.00;99.90
13697;DHT22;6920;50.080;8.226;2024-02-21T03:05:14;8.00;99.90
13697;DHT22;6920;50.080;8.226;2024-02-21T03:10:10;7.90;99.90
13697;DHT22;6920;50.080;8.226;2024-02-21T03:15:06;7.80;99.90
13697;DHT22;6920;50.080;8.226;2024-02-21T03:17:35;7.80;99.90
13697;DHT22;6920;50.080;8.226;2024-02-21T03:20:02;7.70;99.90
13697;DHT22;6920;50.080;8.226;2024-02-21T03:32:20;7.70;99.90
13697;DHT22;6920;50.080;8.226;2024-02-21T03:34:49;7.80;99.90
13697;DHT22;6920;50.080;8.226;2024-02-21T03:52:06;7.80;99.90
13697;DHT22;6920;50.080;8.226;2024-02-21T04:09:21;8.10;99.90
13697;DHT22;6920;50.080;8.226;2024-02-21T04:26:36;8.40;99.90
13697;DHT22;6920;50.080;8.226;2024-02-21T04:31:32;8.00;99.90
13697;DHT22;6920;50.080;8.226;2024-02-21T04:43:53;8.20;99.90
13697;DHT22;6920;50.080;8.226;2024-02-21T04:56:11;7.80;99.90
13697;DHT22;6920;50.080;8.226;2024-02-21T05:01:09;7.70;99.90
13697;DHT22;6920;50.080;8.226;2024-02-21T05:06:04;7.60;99.90
13697;DHT22;6920;50.080;8.226;2024-02-21T05:10:58;7.60;99.90
13697;DHT22;6920;50.080;8.226;2024-02-21T05:13:26;7.50;99.90
13697;DHT22;6920;50.080;8.226;2024-02-21T05:15:53;7.70;99.90
13697;DHT22;6920;50.080;8.226;2024-02-21T05:20:49;7.80;99.90
13697;DHT22;6920;50.080;8.226;2024-02-21T05:23:16;7.60;99.90
13697;DHT22;6920;50.080;8.226;2024-02-21T05:35:36;8.30;99.90
13697;DHT22;6920;50.080;8.226;2024-02-21T05:52:58;7.50;99.90
13697;DHT22;6920;50.080;8.226;2024-02-21T06:05:21;7.20;99.90
13697;DHT22;6920;50.080;8.226;2024-02-21T06:10:20;6.90;99.90
13697;DHT22;6920;50.080;8.226;2024-02-21T06:12:48;4.30;99.90
13697;DHT22;6920;50.080;8.226;2024-02-21T06:15:18;7.10;99.90
13697;DHT22;6920;50.080;8.226;2024-02-21T06:20:16;2.20;99.90
13697;DHT22;6920;50.080;8.226;2024-02-21T06:27:43;7.00;99.90
13697;DHT22;6920;50.080;8.226;2024-02-21T06:44:59;6.90;99.90
13697;DHT22;6920;50.080;8.226;2024-02-21T06:57:19;7.20;99.90
13697;DHT22;6920;50.080;8.226;2024-02-21T07:02:15;7.30;99.90
13697;DHT22;6920;50.080;8.226;2024-02-21T07:12:06;7.10;99.90
13697;DHT22;6920;50.080;8.226;2024-02-21T07:40:12;7.10;99.90
13697;DHT22;6920;50.080;8.226;2024-02-21T07:50:07;7.30;99.90
13697;DHT22;6920;50.080;8.226;2024-02-21T07:52:35;7.50;99.90
13697;DHT22;6920;50.080;8.226;2024-02-21T07:55:02;7.60;99.90
13697;DHT22;6920;50.080;8.226;2024-02-21T07:57:31;7.70;99.90
13697;DHT22;6920;50.080;8.226;2024-02-21T08:02:26;7.90;99.90
13697;DHT22;6920;50.080;8.226;2024-02-21T08:12:18;8.50;99.90
13697;DHT22;6920;50.080;8.226;2024-02-21T08:15:03;8.60;99.90
13697;DHT22;6920;50.080;8.226;2024-02-21T08:32:20;8.30;99.90
13697;DHT22;6920;50.080;8.226;2024-02-21T08:34:47;8.30;99.90
13697;DHT22;6920;50.080;8.226;2024-02-21T08:37:15;8.30;99.90
13697;DHT22;6920;50.080;8.226;2024-02-21T08:39:42;8.50;99.90
13697;DHT22;6920;50.080;8.226;2024-02-21T08:42:09;8.40;99.90
13697;DHT22;6920;50.080;8.226;2024-02-21T08:44:40;8.50;99.90
13697;DHT22;6920;50.080;8.226;2024-02-21T08:49:38;8.50;99.90
13697;DHT22;6920;50.080;8.226;2024-02-21T08:57:04;8.80;99.90
13697;DHT22;6920;50.080;8.226;2024-02-21T08:59:31;8.90;99.90
13697;DHT22;6920;50.080;8.226;2024-02-21T09:01:59;8.90;99.90
13697;DHT22;6920;50.080;8.226;2024-02-21T09:07:00;11.30;99.90
13697;DHT22;6920;50.080;8.226;2024-02-21T09:16:56;9.20;99.90
13697;DHT22;6920;50.080;8.226;2024-02-21T09:19:23;9.90;99.90
13697;DHT22;6920;50.080;8.226;2024-02-21T09:24:20;9.40;99.90
13697;DHT22;6920;50.080;8.226;2024-02-21T09:39:09;9.40;99.90
13697;DHT22;6920;50.080;8.226;2024-02-21T09:41:47;9.40;99.90
13697;DHT22;6920;50.080;8.226;2024-02-21T09:44:15;9.50;99.90
13697;DHT22;6920;50.080;8.226;2024-02-21T09:46:47;9.60;99.90
13697;DHT22;6920;50.080;8.226;2024-02-21T09:49:27;9.80;99.90
13697;DHT22;6920;50.080;8.226;2024-02-21T09:52:00;9.80;99.90
13697;DHT22;6920;50.080;8.226;2024-02-21T09:54:30;9.80;99.90
13697;DHT22;6920;50.080;8.226;2024-02-21T09:56:59;10.10;99.90
13697;DHT22;6920;50.080;8.226;2024-02-21T09:59:27;10.10;99.90
13697;DHT22;6920;50.080;8.226;2024-02-21T10:04:24;10.10;99.90
13697;DHT22;6920;50.080;8.226;2024-02-21T10:06:53;10.10;99.90
13697;DHT22;6920;50.080;8.226;2024-02-21T10:09:22;10.30;99.90
13697;DHT22;6920;50.080;8.226;2024-02-21T10:11:50;10.20;99.90
13697;DHT22;6920;50.080;8.226;2024-02-21T10:14:19;10.20;99.90
13697;DHT22;6920;50.080;8.226;2024-02-21T10:16:49;10.00;99.90
13697;DHT22;6920;50.080;8.226;2024-02-21T10:21:57;10.10;99.90
13697;DHT22;6920;50.080;8.226;2024-02-21T10:24:26;10.10;99.90
13697;DHT22;6920;50.080;8.226;2024-02-21T10:27:02;10.10;99.90
13697;DHT22;6920;50.080;8.226;2024-02-21T10:29:32;10.30;99.90
13697;DHT22;6920;50.080;8.226;2024-02-21T10:32:08;10.30;99.90
13697;DHT22;6920;50.080;8.226;2024-02-21T10:34:40;10.30;99.90
13697;DHT22;6920;50.080;8.226;2024-02-21T10:37:09;10.30;99.90
13697;DHT22;6920;50.080;8.226;2024-02-21T10:39:38;10.30;99.90
13697;DHT22;6920;50.080;8.226;2024-02-21T10:42:06;10.40;99.90
13697;DHT22;6920;50.080;8.226;2024-02-21T10:44:38;10.40;99.90
13697;DHT22;6920;50.080;8.226;2024-02-21T10:47:08;10.50;99.90
13697;DHT22;6920;50.080;8.226;2024-02-21T10:49:39;10.50;99.90
13697;DHT22;6920;50.080;8.226;2024-02-21T10:52:12;10.70;99.90
13697;DHT22;6920;50.080;8.226;2024-02-21T10:54:44;10.70;99.90
13697;DHT22;6920;50.080;8.226;2024-02-21T10:57:13;10.60;99.90
13697;DHT22;6920;50.080;8.226;2024-02-21T10:59:44;10.70;99.90
13697;DHT22;6920;50.080;8.226;2024-02-21T11:02:12;10.80;99.90
13697;DHT22;6920;50.080;8.226;2024-02-21T11:04:43;10.90;99.90
13697;DHT22;6920;50.080;8.226;2024-02-21T11:07:11;10.90;99.90
13697;DHT22;6920;50.080;8.226;2024-02-21T11:09:51;10.80;99.90
13697;DHT22;6920;50.080;8.226;2024-02-21T11:12:20;10.90;99.90
13697;DHT22;6920;50.080;8.226;2024-02-21T11:14:50;10.80;99.90
13697;DHT22;6920;50.080;8.226;2024-02-21T11:22:17;10.70;99.90
13697;DHT22;6920;50.080;8.226;2024-02-21T11:24:45;10.70;99.90
13697;DHT22;6920;50.080;8.226;2024-02-21T11:27:14;10.70;99.90
13697;DHT22;6920;50.080;8.226;2024-02-21T11:29:43;10.70;99.90
13697;DHT22;6920;50.080;8.226;2024-02-21T11:32:16;10.90;99.90
13697;DHT22;6920;50.080;8.226;2024-02-21T11:37:21;11.10;99.90
13697;DHT22;6920;50.080;8.226;2024-02-21T11:39:48;11.10;99.90
13697;DHT22;6920;50.080;8.226;2024-02-21T11:42:18;11.00;99.90
13697;DHT22;6920;50.080;8.226;2024-02-21T11:44:46;10.90;99.90
13697;DHT22;6920;50.080;8.226;2024-02-21T11:47:15;10.90;99.90
13697;DHT22;6920;50.080;8.226;2024-02-21T11:49:45;11.00;99.90
13697;DHT22;6920;50.080;8.226;2024-02-21T11:52:17;11.00;99.90
13697;DHT22;6920;50.080;8.226;2024-02-21T11:54:46;10.90;99.90
13697;DHT22;6920;50.080;8.226;2024-02-21T11:57:15;11.00;99.90
13697;DHT22;6920;50.080;8.226;2024-02-21T11:59:44;10.90;99.90
13697;DHT22;6920;50.080;8.226;2024-02-21T12:07:10;11.10;99.90
13697;DHT22;6920;50.080;8.226;2024-02-21T12:09:38;11.20;99.90
13697;DHT22;6920;50.080;8.226;2024-02-21T12:12:06;11.20;99.90
13697;DHT22;6920;50.080;8.226;2024-02-21T12:14:35;11.20;99.90
13697;DHT22;6920;50.080;8.226;2024-02-21T12:19:33;16.70;99.90
13697;DHT22;6920;50.080;8.226;2024-02-21T12:22:03;11.30;99.90
13697;DHT22;6920;50.080;8.226;2024-02-21T12:29:31;11.20;99.90
13697;DHT22;6920;50.080;8.226;2024-02-21T12:31:59;11.20;99.90
13697;DHT22;6920;50.080;8.226;2024-02-21T12:34:26;11.30;99.90
13697;DHT22;6920;50.080;8.226;2024-02-21T12:39:26;11.10;99.90
13697;DHT22;6920;50.080;8.226;2024-02-21T12:56:45;8.20;99.90
13697;DHT22;6920;50.080;8.226;2024-02-21T13:11:34;10.90;99.90
13697;DHT22;6920;50.080;8.226;2024-02-21T13:14:04;11.00;99.90
13697;DHT22;6920;50.080;8.226;2024-02-21T13:26:23;10.90;99.90
13697;DHT22;6920;50.080;8.226;2024-02-21T13:33:48;11.20;99.90
13697;DHT22;6920;50.080;8.226;2024-02-21T13:48:37;11.20;99.90
13697;DHT22;6920;50.080;8.226;2024-02-21T13:51:04;11.10;99.90
13697;DHT22;6920;50.080;8.226;2024-02-21T13:56:01;11.20;99.90
13697;DHT22;6920;50.080;8.226;2024-02-21T14:05:53;11.30;99.90
13697;DHT22;6920;50.080;8.226;2024-02-21T14:13:20;11.30;99.90
13697;DHT22;6920;50.080;8.226;2024-02-21T14:15:47;11.30;99.90
13697;DHT22;6920;50.080;8.226;2024-02-21T14:18:16;11.30;99.90
13697;DHT22;6920;50.080;8.226;2024-02-21T14:20:43;11.30;99.90
13697;DHT22;6920;50.080;8.226;2024-02-21T14:25:41;11.20;99.90
13697;DHT22;6920;50.080;8.226;2024-02-21T14:30:38;11.30;99.90
13697;DHT22;6920;50.080;8.226;2024-02-21T14:33:05;11.20;99.90
13697;DHT22;6920;50.080;8.226;2024-02-21T14:35:33;11.20;99.90
13697;DHT22;6920;50.080;8.226;2024-02-21T14:38:04;11.20;99.90
13697;DHT22;6920;50.080;8.226;2024-02-21T14:45:28;11.20;99.90
13697;DHT22;6920;50.080;8.226;2024-02-21T14:47:55;11.20;99.90
13697;DHT22;6920;50.080;8.226;2024-02-21T14:52:50;11.30;99.90
13697;DHT22;6920;50.080;8.226;2024-02-21T15:00:15;11.30;99.90
13697;DHT22;6920;50.080;8.226;2024-02-21T15:02:42;11.20;99.90
13697;DHT22;6920;50.080;8.226;2024-02-21T15:05:10;11.20;99.90
13697;DHT22;6920;50.080;8.226;2024-02-21T15:07:38;11.20;99.90
13697;DHT22;6920;50.080;8.226;2024-02-21T15:10:06;11.10;99.90
13697;DHT22;6920;50.080;8.226;2024-02-21T15:12:33;11.10;99.90
13697;DHT22;6920;50.080;8.226;2024-02-21T15:17:30;11.10;99.90
13697;DHT22;6920;50.080;8.226;2024-02-21T15:19:58;11.10;99.90
13697;DHT22;6920;50.080;8.226;2024-02-21T15:22:26;11.10;99.90
13697;DHT22;6920;50.080;8.226;2024-02-21T15:27:22;11.10;99.90
13697;DHT22;6920;50.080;8.226;2024-02-21T15:42:14;11.00;99.90
13697;DHT22;6920;50.080;8.226;2024-02-21T15:47:11;11.10;99.90
13697;DHT22;6920;50.080;8.226;2024-02-21T15:52:08;11.10;99.90
13697;DHT22;6920;50.080;8.226;2024-02-21T15:54:36;11.00;99.90
13697;DHT22;6920;50.080;8.226;2024-02-21T15:57:04;11.00;99.90
13697;DHT22;6920;50.080;8.226;2024-02-21T15:59:33;11.00;99.90
13697;DHT22;6920;50.080;8.226;2024-02-21T16:04:29;11.00;99.90
13697;DHT22;6920;50.080;8.226;2024-02-21T16:07:00;11.00;99.90
13697;DHT22;6920;50.080;8.226;2024-02-21T16:14:35;10.90;99.90
13697;DHT22;6920;50.080;8.226;2024-02-21T16:22:00;10.90;99.90
13697;DHT22;6920;50.080;8.226;2024-02-21T16:31:54;10.90;99.90
13697;DHT22;6920;50.080;8.226;2024-02-21T16:39:18;10.80;99.90
13697;DHT22;6920;50.080;8.226;2024-02-21T16:44:28;10.70;99.90
13697;DHT22;6920;50.080;8.226;2024-02-21T16:47:03;10.70;99.90
13697;DHT22;6920;50.080;8.226;2024-02-21T16:52:07;15.80;99.90
13697;DHT22;6920;50.080;8.226;2024-02-21T16:54:36;9.90;99.90
13697;DHT22;6920;50.080;8.226;2024-02-21T17:02:02;10.60;99.90
13697;DHT22;6920;50.080;8.226;2024-02-21T17:04:32;10.70;99.90
13697;DHT22;6920;50.080;8.226;2024-02-21T17:11:59;12.40;99.90
13697;DHT22;6920;50.080;8.226;2024-02-21T17:21:51;11.60;99.90
13697;DHT22;6920;50.080;8.226;2024-02-21T17:29:18;10.40;99.90
13697;DHT22;6920;50.080;8.226;2024-02-21T17:46:40;10.40;99.90
13697;DHT22;6920;50.080;8.226;2024-02-21T18:03:59;10.30;99.90
13697;DHT22;6920;50.080;8.226;2024-02-21T18:13:52;10.30;99.90
13697;DHT22;6920;50.080;8.226;2024-02-21T18:21:27;10.20;99.90
13697;DHT22;6920;50.080;8.226;2024-02-21T18:23:55;10.30;99.90
13697;DHT22;6920;50.080;8.226;2024-02-21T18:27:21;10.30;99.90
13697;DHT22;6920;50.080;8.226;2024-02-21T18:30:04;10.30;99.90
13697;DHT22;6920;50.080;8.226;2024-02-21T18:32:57;10.30;99.90
13697;DHT22;6920;50.080;8.226;2024-02-21T18:35:31;10.30;99.90
13697;DHT22;6920;50.080;8.226;2024-02-21T18:38:03;10.20;99.90
13697;DHT22;6920;50.080;8.226;2024-02-21T18:40:44;10.20;99.90
13697;DHT22;6920;50.080;8.226;2024-02-21T18:43:13;10.20;99.90
13697;DHT22;6920;50.080;8.226;2024-02-21T18:45:55;10.20;99.90
13697;DHT22;6920;50.080;8.226;2024-02-21T18:48:37;10.20;99.90
13697;DHT22;6920;50.080;8.226;2024-02-21T18:51:38;10.20;99.90
13697;DHT22;6920;50.080;8.226;2024-02-21T18:54:26;10.20;99.90
13697;DHT22;6920;50.080;8.226;2024-02-21T18:56:54;10.20;99.90
13697;DHT22;6920;50.080;8.226;2024-02-21T19:03:33;10.00;99.90
13697;DHT22;6920;50.080;8.226;2024-02-21T19:08:48;10.00;99.90
13697;DHT22;6920;50.080;8.226;2024-02-21T19:11:52;10.10;99.90
13697;DHT22;6920;50.080;8.226;2024-02-21T19:14:40;10.10;99.90
13697;DHT22;6920;50.080;8.226;2024-02-21T19:17:21;10.10;99.90
13697;DHT22;6920;50.080;8.226;2024-02-21T19:20:29;10.10;99.90
13697;DHT22;6920;50.080;8.226;2024-02-21T19:23:11;10.00;99.90
13697;DHT22;6920;50.080;8.226;2024-02-21T19:25:59;9.90;99.90
13697;DHT22;6920;50.080;8.226;2024-02-21T19:28:41;9.90;99.90
13697;DHT22;6920;50.080;8.226;2024-02-21T19:31:48;9.90;99.90
13697;DHT22;6920;50.080;8.226;2024-02-21T19:34:32;9.90;99.90
13697;DHT22;6920;50.080;8.226;2024-02-21T19:37:33;9.80;99.90
13697;DHT22;6920;50.080;8.226;2024-02-21T19:40:18;9.80;99.90
13697;DHT22;6920;50.080;8.226;2024-02-21T19:43:02;9.70;99.90
13697;DHT22;6920;50.080;8.226;2024-02-21T19:45:39;9.70;99.90
13697;DHT22;6920;50.080;8.226;2024-02-21T19:48:23;9.70;99.90
13697;DHT22;6920;50.080;8.226;2024-02-21T19:50:54;9.60;99.90
13697;DHT22;6920;50.080;8.226;2024-02-21T19:53:29;9.60;99.90
13697;DHT22;6920;50.080;8.226;2024-02-21T19:56:07;9.50;99.90
13697;DHT22;6920;50.080;8.226;2024-02-21T20:05:02;9.40;99.90
13697;DHT22;6920;50.080;8.226;2024-02-21T20:07:32;9.40;99.90
13697;DHT22;6920;50.080;8.226;2024-02-21T20:10:16;9.30;99.90
13697;DHT22;6920;50.080;8.226;2024-02-21T20:12:46;9.20;99.90
13697;DHT22;6920;50.080;8.226;2024-02-21T20:15:16;9.10;99.90
13697;DHT22;6920;50.080;8.226;2024-02-21T20:17:54;9.10;99.90
13697;DHT22;6920;50.080;8.226;2024-02-21T20:20:36;9.10;99.90
13697;DHT22;6920;50.080;8.226;2024-02-21T20:23:18;9.10;99.90
13697;DHT22;6920;50.080;8.226;2024-02-21T20:26:00;9.10;99.90
13697;DHT22;6920;50.080;8.226;2024-02-21T20:28:31;8.90;99.90
13697;DHT22;6920;50.080;8.226;2024-02-21T20:30:58;8.90;99.90
13697;DHT22;6920;50.080;8.226;2024-02-21T20:33:41;8.80;99.90
13697;DHT22;6920;50.080;8.226;2024-02-21T20:36:11;8.70;99.90
13697;DHT22;6920;50.080;8.226;2024-02-21T20:38:38;8.70;99.90
13697;DHT22;6920;50.080;8.226;2024-02-21T20:41:16;8.70;99.90
13697;DHT22;6920;50.080;8.226;2024-02-21T20:43:46;8.60;99.90
13697;DHT22;6920;50.080;8.226;2024-02-21T20:46:14;8.60;99.90
13697;DHT22;6920;50.080;8.226;2024-02-21T20:48:42;8.50;99.90
13697;DHT22;6920;50.080;8.226;2024-02-21T20:51:13;8.50;99.90
13697;DHT22;6920;50.080;8.226;2024-02-21T20:53:45;8.40;99.90
13697;DHT22;6920;50.080;8.226;2024-02-21T20:56:13;8.40;99.90
13697;DHT22;6920;50.080;8.226;2024-02-21T20:58:42;8.40;99.90
13697;DHT22;6920;50.080;8.226;2024-02-21T21:01:13;8.30;99.90
13697;DHT22;6920;50.080;8.226;2024-02-21T21:03:40;8.30;99.90
13697;DHT22;6920;50.080;8.226;2024-02-21T21:06:08;8.30;99.90
13697;DHT22;6920;50.080;8.226;2024-02-21T21:08:45;8.20;99.90
13697;DHT22;6920;50.080;8.226;2024-02-21T21:11:20;8.20;99.90
13697;DHT22;6920;50.080;8.226;2024-02-21T21:13:49;8.20;99.90
13697;DHT22;6920;50.080;8.226;2024-02-21T21:16:17;8.20;99.90
13697;DHT22;6920;50.080;8.226;2024-02-21T21:18:48;8.20;99.90
13697;DHT22;6920;50.080;8.226;2024-02-21T21:21:19;8.10;99.90
13697;DHT22;6920;50.080;8.226;2024-02-21T21:23:59;8.20;99.90
13697;DHT22;6920;50.080;8.226;2024-02-21T21:26:31;8.20;99.90
13697;DHT22;6920;50.080;8.226;2024-02-21T21:29:00;8.20;99.90
13697;DHT22;6920;50.080;8.226;2024-02-21T21:31:29;8.10;99.90
13697;DHT22;6920;50.080;8.226;2024-02-21T21:34:01;8.10;99.90
13697;DHT22;6920;50.080;8.226;2024-02-21T21:36:52;8.10;99.90
13697;DHT22;6920;50.080;8.226;2024-02-21T21:39:33;8.10;99.90
13697;DHT22;6920;50.080;8.226;2024-02-21T21:45:36;8.10;99.90
13697;DHT22;6920;50.080;8.226;2024-02-21T21:48:25;8.00;99.90
13697;DHT22;6920;50.080;8.226;2024-02-21T21:50:52;8.00;99.90
13697;DHT22;6920;50.080;8.226;2024-02-21T21:53:22;8.00;99.90
13697;DHT22;6920;50.080;8.226;2024-02-21T21:55:56;8.10;99.90
13697;DHT22;6920;50.080;8.226;2024-02-21T21:58:26;8.10;99.90
13697;DHT22;6920;50.080;8.226;2024-02-21T22:00:56;8.10;99.90
13697;DHT22;6920;50.080;8.226;2024-02-21T22:03:24;8.00;99.90
13697;DHT22;6920;50.080;8.226;2024-02-21T22:05:54;8.10;99.90
13697;DHT22;6920;50.080;8.226;2024-02-21T22:08:22;8.00;99.90
13697;DHT22;6920;50.080;8.226;2024-02-21T22:10:51;8.00;99.90
13697;DHT22;6920;50.080;8.226;2024-02-21T22:13:19;8.00;99.90
13697;DHT22;6920;50.080;8.226;2024-02-21T22:15:52;8.00;99.90
13697;DHT22;6920;50.080;8.226;2024-02-21T22:18:23;8.00;99.90
13697;DHT22;6920;50.080;8.226;2024-02-21T22:20:54;8.10;99.90
13697;DHT22;6920;50.080;8.226;2024-02-21T22:23:23;8.10;99.90
13697;DHT22;6920;50.080;8.226;2024-02-21T22:25:51;8.10;99.90
13697;DHT22;6920;50.080;8.226;2024-02-21T22:28:26;8.00;99.90
13697;DHT22;6920;50.080;8.226;2024-02-21T22:31:11;8.10;99.90
13697;DHT22;6920;50.080;8.226;2024-02-21T22:33:51;8.10;99.90
13697;DHT22;6920;50.080;8.226;2024-02-21T22:36:24;8.00;99.90
13697;DHT22;6920;50.080;8.226;2024-02-21T22:38:55;8.10;99.90
13697;DHT22;6920;50.080;8.226;2024-02-21T22:41:23;8.10;99.90
13697;DHT22;6920;50.080;8.226;2024-02-21T22:44:02;8.10;99.90
13697;DHT22;6920;50.080;8.226;2024-02-21T22:46:31;8.10;99.90
13697;DHT22;6920;50.080;8.226;2024-02-21T22:49:08;8.10;99.90
13697;DHT22;6920;50.080;8.226;2024-02-21T22:51:37;8.10;99.90
13697;DHT22;6920;50.080;8.226;2024-02-21T22:54:15;8.10;99.90
13697;DHT22;6920;50.080;8.226;2024-02-21T22:56:45;8.10;99.90
13697;DHT22;6920;50.080;8.226;2024-02-21T22:59:16;8.10;99.90
13697;DHT22;6920;50.080;8.226;2024-02-21T23:01:48;8.10;99.90
13697;DHT22;6920;50.080;8.226;2024-02-21T23:04:22;8.20;99.90
13697;DHT22;6920;50.080;8.226;2024-02-21T23:06:52;8.10;99.90
13697;DHT22;6920;50.080;8.226;2024-02-21T23:09:24;8.10;99.90
13697;DHT22;6920;50.080;8.226;2024-02-21T23:12:00;8.10;99.90
13697;DHT22;6920;50.080;8.226;2024-02-21T23:14:29;8.10;99.90
13697;DHT22;6920;50.080;8.226;2024-02-21T23:17:02;8.10;99.90
13697;DHT22;6920;50.080;8.226;2024-02-21T23:19:35;8.10;99.90
13697;DHT22;6920;50.080;8.226;2024-02-21T23:22:06;8.10;99.90
13697;DHT22;6920;50.080;8.226;2024-02-21T23:24:34;8.10;99.90
13697;DHT22;6920;50.080;8.226;2024-02-21T23:27:05;8.10;99.90
13697;DHT22;6920;50.080;8.226;2024-02-21T23:29:35;8.10;99.90
13697;DHT22;6920;50.080;8.226;2024-02-21T23:32:06;8.10;99.90
13697;DHT22;6920;50.080;8.226;2024-02-21T23:35:04;8.10;99.90
13697;DHT22;6920;50.080;8.226;2024-02-21T23:37:34;8.10;99.90
13697;DHT22;6920;50.080;8.226;2024-02-21T23:40:10;8.10;99.90
13697;DHT22;6920;50.080;8.226;2024-02-21T23:42:42;8.10;99.90
13697;DHT22;6920;50.080;8.226;2024-02-21T23:45:11;8.10;99.90
13697;DHT22;6920;50.080;8.226;2024-02-21T23:47:43;8.10;99.90
13697;DHT22;6920;50.080;8.226;2024-02-21T23:50:20;8.10;99.90
13697;DHT22;6920;50.080;8.226;2024-02-21T23:52:53;8.10;99.90
13697;DHT22;6920;50.080;8.226;2024-02-21T23:55:22;8.10;99.90
13697;DHT22;6920;50.080;8.226;2024-02-21T23:58:00;8.10;99.90
